Time;durP1;ratioP1;P1;durP2;ratioP2;P2;SDS_P1;SDS_P2;PMS_P1;PMS_P2;Temp;Humidity;BMP_temperature;BMP_pressure;BME280_temperature;BME280_humidity;BME280_pressure;Samples;Min_cycle;Max_cycle;Signal;HPM_P1;HPM_P2
2021/09/07 00:01:56;;;;;;;22.20;15.15;;;;;;;15.40;100.00;101533.06;2615452;36;20590;-48
2021/09/07 00:04:28;;;;;;;24.73;16.23;;;;;;;15.41;100.00;101529.63;2615906;31;20055;-47
2021/09/07 00:06:59;;;;;;;21.65;16.00;;;;;;;15.43;100.00;101539.97;2616055;31;20038;-47
2021/09/07 00:09:26;;;;;;;21.25;15.82;;;;;;;15.44;100.00;101534.00;2580127;31;2004588;-50
2021/09/07 00:11:54;;;;;;;26.17;16.20;;;;;;;15.43;100.00;101525.34;2616314;31;20065;-51
2021/09/07 00:14:21;;;;;;;22.70;16.65;;;;;;;15.40;100.00;101520.16;2615146;36;20038;-47
2021/09/07 00:16:48;;;;;;;23.02;16.27;;;;;;;15.39;100.00;101520.09;2615176;31;20030;-48
2021/09/07 00:19:15;;;;;;;23.27;16.48;;;;;;;15.39;100.00;101521.00;2614508;36;20061;-49
2021/09/07 00:21:51;;;;;;;22.33;16.77;;;;;;;15.37;100.00;101516.66;2614851;36;20183;-46
2021/09/07 00:24:19;;;;;;;21.40;16.00;;;;;;;15.36;100.00;101515.78;2615924;36;20530;-50
2021/09/07 00:26:46;;;;;;;21.65;15.55;;;;;;;15.35;100.00;101516.63;2614897;36;20038;-48
2021/09/07 00:29:13;;;;;;;23.65;16.40;;;;;;;15.35;100.00;101508.00;2614713;36;20031;-48
2021/09/07 00:31:40;;;;;;;26.45;17.05;;;;;;;15.36;100.00;101508.03;2614994;36;20526;-52
2021/09/07 00:34:07;;;;;;;23.48;16.67;;;;;;;15.34;100.00;101507.13;2614843;36;20050;-49
2021/09/07 00:36:35;;;;;;;23.05;16.08;;;;;;;15.35;100.00;101508.00;2615625;36;20057;-49
2021/09/07 00:39:02;;;;;;;22.90;16.35;;;;;;;15.36;100.00;101512.31;2615085;31;20657;-49
2021/09/07 00:41:29;;;;;;;20.35;15.38;;;;;;;15.33;100.00;101509.69;2615526;36;20469;-49
2021/09/07 00:43:56;;;;;;;24.00;16.77;;;;;;;15.32;100.00;101515.69;2615728;36;20038;-48
2021/09/07 00:46:23;;;;;;;22.90;16.02;;;;;;;15.30;100.00;101515.66;2615455;31;20027;-53
2021/09/07 00:48:50;;;;;;;23.00;17.20;;;;;;;15.31;100.00;101512.25;2615443;36;20065;-49
2021/09/07 00:51:20;;;;;;;24.52;16.77;;;;;;;15.32;100.00;101511.38;2618951;31;20034;-50
2021/09/07 00:53:49;;;;;;;23.27;16.85;;;;;;;15.33;100.00;101512.25;2619933;31;20899;-46
2021/09/07 00:56:17;;;;;;;22.17;16.77;;;;;;;15.32;100.00;101511.38;2615560;36;20065;-44
2021/09/07 00:58:46;;;;;;;21.75;16.08;;;;;;;15.31;100.00;101504.50;2615416;36;20031;-48
2021/09/07 01:01:13;;;;;;;23.63;16.35;;;;;;;15.27;100.00;101505.28;2615430;36;20038;-45
2021/09/07 01:03:40;;;;;;;22.85;16.45;;;;;;;15.25;100.00;101499.19;2617434;31;20129;-47
2021/09/07 01:06:07;;;;;;;24.33;15.77;;;;;;;15.26;100.00;101496.66;2616386;31;20858;-49
2021/09/07 01:08:36;;;;;;;22.58;15.45;;;;;;;15.26;100.00;101490.63;2618162;31;20030;-45
2021/09/07 01:11:04;;;;;;;21.50;15.95;;;;;;;15.25;100.00;101501.78;2615079;36;20035;-53
2021/09/07 01:13:31;;;;;;;22.27;15.95;;;;;;;15.23;100.00;101498.31;2615338;36;20037;-49
2021/09/07 01:16:00;;;;;;;24.13;16.83;;;;;;;15.20;100.00;101487.91;2616252;36;20034;-46
2021/09/07 01:18:28;;;;;;;25.95;16.75;;;;;;;15.20;100.00;101486.19;2615442;36;20037;-54
2021/09/07 01:20:55;;;;;;;21.58;15.73;;;;;;;15.19;100.00;101481.88;2615869;36;20038;-44
2021/09/07 01:23:22;;;;;;;26.02;16.63;;;;;;;15.16;100.00;101481.84;2615521;36;20663;-50
2021/09/07 01:25:49;;;;;;;26.35;17.13;;;;;;;15.13;100.00;101486.94;2615783;31;20026;-44
2021/09/07 01:28:18;;;;;;;22.13;16.52;;;;;;;15.16;100.00;101488.69;2615702;31;20030;-47
2021/09/07 01:30:46;;;;;;;23.13;15.80;;;;;;;15.13;100.00;101488.66;2615078;36;20363;-44
2021/09/07 01:33:13;;;;;;;25.33;16.85;;;;;;;15.13;100.00;101486.06;2615873;31;20037;-52
2021/09/07 01:35:40;;;;;;;26.02;16.38;;;;;;;15.13;100.00;101493.81;2620120;31;20039;-53
2021/09/07 01:38:07;;;;;;;22.15;16.77;;;;;;;15.13;100.00;101488.66;2618312;31;20559;-45
2021/09/07 01:40:34;;;;;;;25.48;15.20;;;;;;;15.10;100.00;101484.28;2615560;31;20034;-54
2021/09/07 01:43:01;;;;;;;26.48;17.85;;;;;;;15.11;100.00;101488.59;2615808;36;20031;-46
2021/09/07 01:45:29;;;;;;;25.83;16.55;;;;;;;15.09;100.00;101490.28;2614957;36;20034;-46
2021/09/07 01:47:56;;;;;;;22.60;15.82;;;;;;;15.07;100.00;101501.41;2615155;36;20045;-45
2021/09/07 01:50:23;;;;;;;28.42;17.48;;;;;;;15.03;100.00;101490.19;2616412;31;20066;-50
2021/09/07 01:52:50;;;;;;;24.67;17.27;;;;;;;15.00;100.00;101495.28;2615536;36;20654;-46
2021/09/07 01:55:17;;;;;;;23.02;16.15;;;;;;;14.97;100.00;101496.06;2616441;31;20035;-45
2021/09/07 01:57:44;;;;;;;24.05;16.48;;;;;;;14.97;100.00;101495.19;2616940;31;20034;-50
2021/09/07 02:00:13;;;;;;;27.27;17.08;;;;;;;14.93;100.00;101501.13;2615060;36;20034;-47
2021/09/07 02:02:40;;;;;;;26.77;17.83;;;;;;;14.89;100.00;101501.94;2615689;36;20570;-50
2021/09/07 02:05:08;;;;;;;24.90;16.33;;;;;;;14.86;100.00;101500.13;2615835;31;20531;-48
2021/09/07 02:07:36;;;;;;;22.67;16.75;;;;;;;14.84;100.00;101508.69;2615076;31;20056;-47
2021/09/07 02:10:04;;;;;;;23.23;16.50;;;;;;;14.83;100.00;101510.38;2615356;31;20041;-49
2021/09/07 02:12:31;;;;;;;21.75;16.33;;;;;;;14.83;100.00;101504.34;2615292;31;20578;-52
2021/09/07 02:14:58;;;;;;;24.83;17.05;;;;;;;14.82;100.00;101506.06;2615101;31;20038;-52
2021/09/07 02:17:25;;;;;;;25.38;16.40;;;;;;;14.82;100.00;101500.91;2615024;36;20038;-45
2021/09/07 02:19:53;;;;;;;22.42;16.75;;;;;;;14.81;100.00;101501.75;2614482;36;20038;-47
2021/09/07 02:22:21;;;;;;;24.40;16.27;;;;;;;14.79;100.00;101500.88;2615740;31;20563;-47
2021/09/07 02:24:49;;;;;;;23.13;16.40;;;;;;;14.79;100.00;101500.88;2616645;36;20042;-49
2021/09/07 02:27:16;;;;;;;26.83;17.60;;;;;;;14.79;100.00;101500.88;2615001;36;20575;-50
2021/09/07 02:29:43;;;;;;;26.95;17.35;;;;;;;14.76;100.00;101496.50;2614689;36;20030;-46
2021/09/07 02:32:10;;;;;;;24.77;16.90;;;;;;;14.76;100.00;101501.66;2615774;31;20038;-51
2021/09/07 02:34:38;;;;;;;23.45;17.40;;;;;;;14.69;100.00;101492.03;2615312;36;20027;-44
2021/09/07 02:37:05;;;;;;;21.67;16.60;;;;;;;14.64;100.00;101492.78;2615548;36;20802;-46
2021/09/07 02:39:32;;;;;;;25.50;16.60;;;;;;;14.58;100.00;101493.53;2615961;36;20057;-44
2021/09/07 02:41:59;;;;;;;22.80;16.52;;;;;;;14.54;100.00;101490.84;2616561;31;20575;-45
2021/09/07 02:44:27;;;;;;;27.00;17.40;;;;;;;14.48;100.00;101492.44;2615485;36;20030;-45
2021/09/07 02:46:54;;;;;;;25.60;17.50;;;;;;;14.42;100.00;101486.22;2616138;31;20033;-46
2021/09/07 02:49:21;;;;;;;25.27;17.05;;;;;;;14.34;100.00;101486.06;2616844;31;20598;-46
2021/09/07 02:51:48;;;;;;;23.38;17.25;;;;;;;14.30;100.00;101485.97;2615838;36;20642;-50
2021/09/07 02:54:16;;;;;;;26.92;17.75;;;;;;;14.26;100.00;101491.03;2615575;36;20030;-49
2021/09/07 02:56:43;;;;;;;24.83;17.88;;;;;;;14.21;100.00;101491.78;2616921;31;20045;-46
2021/09/07 02:59:10;;;;;;;24.90;16.75;;;;;;;14.17;100.00;101489.97;2614906;31;20057;-45
2021/09/07 03:01:37;;;;;;;26.08;17.88;;;;;;;14.11;100.00;101488.13;2614888;31;20096;-49
2021/09/07 03:04:05;;;;;;;28.85;19.10;;;;;;;14.05;100.00;101485.41;2615823;31;20140;-50
2021/09/07 03:06:32;;;;;;;29.60;19.02;;;;;;;13.98;100.00;101489.50;2614731;36;20030;-44
2021/09/07 03:09:01;;;;;;;24.20;18.08;;;;;;;13.92;100.00;101491.09;2616920;31;20327;-50
2021/09/07 03:11:28;;;;;;;26.55;19.13;;;;;;;13.86;100.00;101484.03;2614861;36;20037;-45
2021/09/07 03:13:55;;;;;;;27.35;19.00;;;;;;;13.78;100.00;101479.56;2615518;31;20046;-47
2021/09/07 03:16:22;;;;;;;25.08;18.42;;;;;;;13.74;100.00;101483.75;2615355;31;20031;-48
2021/09/07 03:18:50;;;;;;;29.00;19.70;;;;;;;13.66;100.00;101482.69;2614763;36;20606;-51
2021/09/07 03:21:17;;;;;;;26.75;19.20;;;;;;;13.58;100.00;101476.47;2614758;36;20039;-48
2021/09/07 03:23:45;;;;;;;28.38;18.75;;;;;;;13.54;100.00;101480.66;2615079;36;20038;-43
2021/09/07 03:26:12;;;;;;;30.08;19.30;;;;;;;13.49;100.00;101487.38;2615206;31;20065;-50
2021/09/07 03:28:39;;;;;;;30.33;21.30;;;;;;;13.43;100.00;101482.94;2614702;31;20900;-44
2021/09/07 03:31:07;;;;;;;30.80;20.02;;;;;;;13.38;100.00;101483.66;2616413;31;20030;-46
2021/09/07 03:33:34;;;;;;;35.22;22.08;;;;;;;13.37;100.00;101476.78;2614772;31;20081;-46
2021/09/07 03:36:01;;;;;;;29.67;20.20;;;;;;;13.32;100.00;101479.22;2616254;31;20034;-45
2021/09/07 03:38:28;;;;;;;28.75;19.33;;;;;;;13.24;100.00;101486.72;2614632;36;20038;-47
2021/09/07 03:40:55;;;;;;;29.70;19.52;;;;;;;13.21;100.00;101475.44;2615491;36;20030;-44
2021/09/07 03:43:22;;;;;;;30.75;21.08;;;;;;;13.16;100.00;101488.19;2615149;36;20063;-55
2021/09/07 03:45:49;;;;;;;30.40;20.30;;;;;;;13.11;100.00;101491.44;2615396;36;20468;-47
2021/09/07 03:48:17;;;;;;;31.08;21.58;;;;;;;13.05;100.00;101489.59;2614985;36;20039;-48
2021/09/07 03:50:44;;;;;;;31.65;21.77;;;;;;;13.02;100.00;101493.75;2614844;36;20045;-43
2021/09/07 03:53:11;;;;;;;32.80;22.00;;;;;;;12.97;100.00;101489.34;2617483;31;20451;-49
2021/09/07 03:55:38;;;;;;;31.02;21.67;;;;;;;12.95;100.00;101496.16;2615877;31;20018;-48
2021/09/07 03:58:05;;;;;;;36.92;23.90;;;;;;;12.93;100.00;101496.94;2615602;31;20030;-47
2021/09/07 04:00:33;;;;;;;40.83;22.10;;;;;;;12.91;100.00;101502.03;2616083;36;20039;-48
2021/09/07 04:03:00;;;;;;;34.78;23.05;;;;;;;12.90;100.00;101500.31;2616020;31;20650;-50
2021/09/07 04:05:27;;;;;;;30.92;21.98;;;;;;;12.89;100.00;101508.81;2615181;36;20090;-46
2021/09/07 04:07:55;;;;;;;35.72;23.20;;;;;;;12.91;100.00;101504.63;2614804;31;20030;-48
2021/09/07 04:10:22;;;;;;;38.13;24.00;;;;;;;12.91;100.00;101507.19;2615584;36;20034;-44
2021/09/07 04:12:49;;;;;;;35.88;23.25;;;;;;;12.92;100.00;101506.34;2616587;31;20065;-52
2021/09/07 04:15:16;;;;;;;35.92;22.88;;;;;;;12.91;100.00;101499.47;2617076;31;20453;-48
2021/09/07 04:17:43;;;;;;;37.88;23.08;;;;;;;12.92;100.00;101511.50;2614908;36;20065;-51
2021/09/07 04:20:11;;;;;;;37.17;24.20;;;;;;;12.91;100.00;101506.31;2614984;36;20049;-48
2021/09/07 04:22:38;;;;;;;35.95;22.65;;;;;;;12.94;100.00;101501.25;2615284;36;20031;-44
2021/09/07 04:25:07;;;;;;;37.80;23.70;;;;;;;12.95;100.00;101514.16;2615724;36;20034;-46
2021/09/07 04:27:35;;;;;;;35.67;23.23;;;;;;;12.94;100.00;101509.84;2615786;31;20039;-47
2021/09/07 04:30:06;;;;;;;33.55;23.65;;;;;;;12.93;100.00;101520.06;2615474;36;20042;-47
2021/09/07 04:32:34;;;;;;;37.35;23.65;;;;;;;12.95;100.00;101521.88;2616240;36;20170;-46
2021/09/07 04:35:03;;;;;;;36.20;24.50;;;;;;;12.96;100.00;101522.75;2616469;31;20044;-44
2021/09/07 04:37:31;;;;;;;36.97;23.38;;;;;;;13.00;100.00;101524.59;2615832;36;20038;-48
2021/09/07 04:39:58;;;;;;;34.38;23.48;;;;;;;13.02;100.00;101522.91;2615851;36;20054;-48
2021/09/07 04:42:25;;;;;;;37.80;23.80;;;;;;;13.06;100.00;101521.31;2619968;31;20438;-44
2021/09/07 04:44:52;;;;;;;37.40;24.23;;;;;;;13.07;100.00;101531.63;2615794;36;20034;-50
2021/09/07 04:47:19;;;;;;;32.90;23.27;;;;;;;13.07;100.00;101538.47;2615394;36;20038;-46
2021/09/07 04:49:46;;;;;;;33.78;23.00;;;;;;;13.07;100.00;101535.91;2615261;36;20034;-50
2021/09/07 04:52:14;;;;;;;36.10;24.40;;;;;;;13.06;100.00;101536.75;2615101;36;20031;-54
2021/09/07 04:54:41;;;;;;;37.78;25.23;;;;;;;13.05;100.00;101538.44;2615837;31;20030;-49
2021/09/07 04:57:08;;;;;;;36.80;23.70;;;;;;;13.02;100.00;101540.91;2616030;36;20447;-46
2021/09/07 04:59:35;;;;;;;34.75;23.38;;;;;;;13.00;100.00;101535.75;2615281;31;20684;-51
2021/09/07 05:02:02;;;;;;;38.13;25.13;;;;;;;12.97;100.00;101542.47;2615799;31;20101;-46
2021/09/07 05:04:30;;;;;;;36.60;25.13;;;;;;;12.95;100.00;101539.00;2615800;36;20118;-46
2021/09/07 05:06:57;;;;;;;39.95;26.00;;;;;;;12.92;100.00;101536.34;2616154;36;20042;-51
2021/09/07 05:09:24;;;;;;;39.83;25.27;;;;;;;12.90;100.00;101549.16;2615722;31;20027;-46
2021/09/07 05:11:51;;;;;;;39.97;26.48;;;;;;;12.88;100.00;101544.78;2616163;36;20038;-50
2021/09/07 05:14:18;;;;;;;41.40;26.23;;;;;;;12.88;100.00;101543.06;2615404;36;20030;-46
2021/09/07 05:16:45;;;;;;;41.47;29.05;;;;;;;12.87;100.00;101554.19;2615674;36;20034;-54
2021/09/07 05:19:15;;;;;;;47.03;27.85;;;;;;;12.88;100.00;101550.78;2615959;31;20030;-46
2021/09/07 05:21:43;;;;;;;42.17;28.23;;;;;;;12.88;100.00;101553.34;2616068;31;20060;-48
2021/09/07 05:24:10;;;;;;;39.45;26.55;;;;;;;12.93;100.00;101558.63;2615462;36;20575;-51
2021/09/07 05:26:37;;;;;;;42.65;27.95;;;;;;;12.97;100.00;101560.47;2615703;31;21222;-52
2021/09/07 05:29:04;;;;;;;45.03;28.05;;;;;;;13.03;100.00;101563.22;2615902;31;20038;-54
2021/09/07 05:31:32;;;;;;;42.15;28.27;;;;;;;13.09;100.00;101567.69;2617807;31;20060;-46
2021/09/07 05:33:59;;;;;;;47.35;29.20;;;;;;;13.14;100.00;101569.56;2617378;31;20030;-50
2021/09/07 05:36:26;;;;;;;44.50;28.50;;;;;;;13.23;100.00;101576.72;2615615;36;20058;-47
2021/09/07 05:38:53;;;;;;;40.72;27.15;;;;;;;13.32;100.00;101579.56;2614946;36;20027;-51
2021/09/07 05:41:21;;;;;;;39.00;26.67;;;;;;;13.40;100.00;101582.31;2616329;31;20038;-50
2021/09/07 05:43:48;;;;;;;42.13;27.63;;;;;;;13.49;100.00;101573.16;2616706;31;20031;-44
2021/09/07 05:46:15;;;;;;;39.45;25.02;;;;;;;13.62;100.00;101578.66;2616375;31;20913;-49
2021/09/07 05:48:43;;;;;;;39.58;26.70;;;;;;;13.72;100.00;101578.94;2615084;36;20057;-50
2021/09/07 05:51:10;;;;;;;38.45;25.38;;;;;;;13.84;100.00;101578.41;2617165;31;20030;-49
2021/09/07 05:53:41;;;;;;;39.40;26.35;;;;;;;13.97;100.00;101589.91;2614988;36;20055;-49
2021/09/07 05:56:10;;;;;;;40.25;26.63;;;;;;;14.14;100.00;101580.03;2615554;36;20038;-47
2021/09/07 05:58:39;;;;;;;35.50;24.33;;;;;;;14.33;100.00;101579.69;2615635;31;20042;-45
2021/09/07 06:01:11;;;;;;;36.08;25.40;;;;;;;14.63;100.00;101584.72;2615844;36;20045;-46
2021/09/07 06:03:39;;;;;;;36.05;23.83;;;;;;;15.00;100.00;101583.84;2615993;36;20479;-51
2021/09/07 08:46:44;;;;;;;21.58;14.40;;;;;;;20.87;73.49;101653.13;2614385;36;20034;-55
2021/09/07 08:49:13;;;;;;;21.40;13.05;;;;;;;21.06;72.01;101649.63;2615140;36;20062;-51
2021/09/07 08:51:41;;;;;;;21.42;14.07;;;;;;;21.17;69.39;101643.50;2615266;36;20038;-53
2021/09/07 08:54:09;;;;;;;21.17;14.35;;;;;;;21.00;71.70;101647.03;2615570;31;20058;-53
2021/09/07 08:56:36;;;;;;;26.35;14.90;;;;;;;21.05;70.75;101645.28;2616328;36;20454;-54
2021/09/07 08:59:05;;;;;;;23.60;15.68;;;;;;;20.65;70.73;101656.63;2615400;31;20160;-56
2021/09/07 09:01:41;;;;;;;18.52;13.65;;;;;;;21.43;70.51;101656.50;2615824;31;20034;-53
2021/09/07 09:04:29;;;;;;;21.45;13.70;;;;;;;21.74;67.73;101655.50;2615305;36;20030;-52
2021/09/07 09:06:56;;;;;;;20.48;13.93;;;;;;;21.30;68.47;101661.72;2615279;31;20039;-54
2021/09/07 09:09:38;;;;;;;21.80;15.27;;;;;;;21.08;67.56;101666.13;2614949;31;20034;-54
2021/09/07 09:12:07;;;;;;;22.48;15.55;;;;;;;21.27;65.59;101658.28;2578815;36;2004419;-54
2021/09/07 09:14:38;;;;;;;20.38;14.85;;;;;;;21.86;67.84;101660.66;2615236;31;20030;-52
2021/09/07 09:17:17;;;;;;;18.77;13.32;;;;;;;22.10;65.01;101659.63;2615380;31;20574;-51
2021/09/07 09:19:49;;;;;;;21.73;14.73;;;;;;;21.72;64.02;101666.78;2615053;36;20030;-53
2021/09/07 09:22:16;;;;;;;21.10;13.02;;;;;;;22.09;65.93;101665.75;2615320;36;20030;-54
2021/09/07 09:24:43;;;;;;;19.92;13.65;;;;;;;22.50;63.47;101663.72;2615591;36;20434;-56
2021/09/07 09:27:11;;;;;;;19.38;13.15;;;;;;;22.58;61.98;101670.63;2615914;31;20031;-56
2021/09/07 09:29:42;;;;;;;18.55;13.85;;;;;;;22.47;59.64;101666.38;2615227;36;20035;-55
2021/09/07 09:32:13;;;;;;;18.58;14.02;;;;;;;22.60;58.68;101671.47;2615251;36;20034;-56
2021/09/07 09:34:41;;;;;;;18.00;13.82;;;;;;;22.24;60.52;101669.16;2615339;36;20452;-54
2021/09/07 09:37:11;;;;;;;18.58;13.70;;;;;;;22.33;60.38;101674.31;2615329;31;20038;-54
2021/09/07 09:39:50;;;;;;;19.45;12.77;;;;;;;21.75;61.89;101666.78;2615423;31;20035;-53
2021/09/07 09:42:30;;;;;;;18.02;12.70;;;;;;;22.49;61.67;101668.06;2615427;31;20042;-52
2021/09/07 09:45:06;;;;;;;15.93;11.27;;;;;;;22.46;60.36;101665.47;2615262;36;20443;-55
2021/09/07 09:47:55;;;;;;;17.50;11.88;;;;;;;22.95;60.39;101675.53;2578653;36;2004573;-53
2021/09/07 09:50:27;;;;;;;17.48;11.70;;;;;;;23.08;57.39;101669.31;2614878;36;20022;-53
2021/09/07 09:52:57;;;;;;;18.33;12.25;;;;;;;23.36;55.46;101674.22;2615279;31;20023;-54
2021/09/07 09:55:24;;;;;;;21.50;12.38;;;;;;;23.56;53.86;101669.63;2614317;36;20050;-51
2021/09/07 09:57:52;;;;;;;15.55;10.50;;;;;;;24.23;51.04;101670.47;2613606;31;20034;-52
2021/09/07 10:00:19;;;;;;;17.88;11.55;;;;;;;24.74;50.81;101674.94;2613997;31;20034;-53
2021/09/07 10:02:46;;;;;;;16.05;10.23;;;;;;;27.30;47.01;101676.19;2613859;31;20101;-53
2021/09/07 10:05:14;;;;;;;17.70;12.10;;;;;;;26.77;47.17;101670.59;2613404;36;20030;-51
2021/09/07 10:08:02;;;;;;;14.48;11.65;;;;;;;27.34;44.63;101672.56;2614020;31;20035;-49
2021/09/07 10:10:31;;;;;;;15.77;12.13;;;;;;;25.96;47.14;101667.28;2618184;36;20550;-52
2021/09/07 10:13:01;;;;;;;15.95;11.50;;;;;;;27.32;44.90;101668.25;2624128;31;20038;-55
2021/09/07 10:22:59;;;;;;;15.77;12.80;;;;;;;33.26;30.66;101668.69;2542479;36;2004997;-48
2021/09/07 10:26:41;;;;;;;14.73;12.82;;;;;;;34.24;30.47;101665.88;2579348;36;2004593;-47
2021/09/07 10:29:13;;;;;;;14.00;11.88;;;;;;;32.84;31.52;101677.97;2616359;31;20663;-50
2021/09/07 10:31:46;;;;;;;15.15;11.85;;;;;;;31.52;32.59;101662.34;2616709;31;20408;-47
2021/09/07 10:34:16;;;;;;;12.32;11.00;;;;;;;34.82;29.49;101677.56;2614966;36;20087;-46
2021/09/07 10:37:01;;;;;;;15.68;11.98;;;;;;;34.46;29.08;101673.50;2615160;36;20526;-50
2021/09/07 10:39:35;;;;;;;13.20;11.10;;;;;;;35.89;27.38;101681.50;2615760;36;20419;-48
2021/09/07 10:42:07;;;;;;;14.95;11.73;;;;;;;34.78;29.37;101674.22;2617481;31;20423;-51
2021/09/07 10:44:39;;;;;;;14.95;11.32;;;;;;;34.81;29.71;101671.38;2578775;36;2004550;-48
2021/09/07 10:47:13;;;;;;;14.93;10.93;;;;;;;35.30;29.40;101676.34;2614914;31;20042;-48
2021/09/07 10:49:44;;;;;;;14.30;12.00;;;;;;;34.81;27.03;101670.53;2614807;36;20565;-46
2021/09/07 10:52:13;;;;;;;13.38;11.98;;;;;;;34.35;28.04;101663.47;2615918;31;20589;-46
2021/09/07 10:54:45;;;;;;;12.70;11.18;;;;;;;35.78;27.65;101665.38;2615506;36;20030;-51
2021/09/07 10:57:36;;;;;;;14.40;11.27;;;;;;;34.29;27.65;101657.63;2616124;31;20062;-49
2021/09/07 11:00:18;;;;;;;13.23;11.60;;;;;;;33.50;29.30;101668.31;2578228;31;2004402;-49
2021/09/07 11:02:48;;;;;;;14.77;11.45;;;;;;;34.04;29.08;101661.72;2614698;31;20168;-45
2021/09/07 11:05:25;;;;;;;12.15;10.75;;;;;;;32.30;31.03;101650.63;2614252;31;20165;-50
2021/09/07 11:08:01;;;;;;;13.30;11.45;;;;;;;32.06;33.62;101651.84;2614284;36;20026;-49
2021/09/07 11:10:31;;;;;;;14.05;10.98;;;;;;;35.84;26.70;101664.97;2614311;36;20027;-47
2021/09/07 11:13:06;;;;;;;13.85;12.35;;;;;;;33.59;30.74;101654.53;2614759;36;20038;-50
2021/09/07 11:15:36;;;;;;;16.40;12.07;;;;;;;31.55;33.41;101651.59;2577594;31;2004674;-50
2021/09/07 11:18:08;;;;;;;14.05;10.70;;;;;;;32.55;33.69;101655.59;2615264;31;20031;-46
2021/09/07 11:20:39;;;;;;;13.30;10.43;;;;;;;34.14;29.36;101654.06;2615427;31;20074;-49
2021/09/07 11:23:16;;;;;;;13.50;11.35;;;;;;;37.41;24.46;101666.69;2616437;31;20038;-46
2021/09/07 11:25:46;;;;;;;11.82;10.32;;;;;;;36.13;26.70;101665.72;2615844;31;20042;-49
2021/09/07 11:28:15;;;;;;;12.50;10.63;;;;;;;35.08;26.63;101666.19;2614446;36;20179;-50
2021/09/07 11:30:44;;;;;;;10.75;9.05;;;;;;;32.17;30.63;101654.81;2615486;31;20022;-49
2021/09/07 11:33:17;;;;;;;12.73;10.07;;;;;;;31.12;33.20;101650.91;2616491;31;20443;-46
2021/09/07 11:36:01;;;;;;;15.02;11.65;;;;;;;33.13;29.38;101651.69;2616474;31;20082;-51
2021/09/07 11:38:33;;;;;;;15.02;10.73;;;;;;;34.80;27.43;101660.81;2617541;31;20121;-48
2021/09/07 11:41:03;;;;;;;10.48;8.90;;;;;;;35.35;26.99;101650.28;2615444;36;20027;-46
2021/09/07 11:43:42;;;;;;;12.23;9.63;;;;;;;36.19;25.44;101663.53;2616460;31;20027;-47
2021/09/07 11:46:18;;;;;;;13.75;9.40;;;;;;;34.42;29.03;101648.84;2579448;36;2004387;-47
2021/09/07 11:48:55;;;;;;;11.32;9.50;;;;;;;35.60;26.77;101662.09;2615413;36;20045;-48
2021/09/07 11:51:27;;;;;;;12.52;11.05;;;;;;;35.18;27.39;101662.00;2614565;31;20529;-47
2021/09/07 11:53:59;;;;;;;12.80;10.38;;;;;;;35.58;27.73;101664.81;2617063;31;20026;-46
2021/09/07 11:56:31;;;;;;;13.13;10.90;;;;;;;35.67;27.00;101666.03;2616300;31;20035;-51
2021/09/07 11:59:18;;;;;;;13.05;10.15;;;;;;;33.69;30.11;101663.69;2616118;31;20031;-49
2021/09/07 12:01:51;;;;;;;13.00;10.00;;;;;;;36.11;26.45;101659.66;2579875;31;2004413;-48
2021/09/07 12:04:20;;;;;;;15.50;9.95;;;;;;;35.37;27.77;101664.38;2616539;31;20466;-46
2021/09/07 12:06:51;;;;;;;12.02;10.32;;;;;;;34.75;29.21;101661.09;2617655;31;20045;-50
2021/09/07 12:09:26;;;;;;;11.98;10.77;;;;;;;35.94;25.10;101669.56;2617824;36;20063;-49
2021/09/07 12:12:02;;;;;;;12.55;10.32;;;;;;;34.20;28.68;101667.00;2616373;36;20042;-54
2021/09/07 12:14:53;;;;;;;11.38;10.05;;;;;;;33.62;29.98;101665.84;2615872;36;20027;-50
2021/09/07 12:17:22;;;;;;;12.25;10.40;;;;;;;31.72;32.76;101652.63;2580348;31;2004584;-52
2021/09/07 12:19:51;;;;;;;11.32;9.55;;;;;;;29.95;36.75;101648.78;2616254;31;20458;-51
2021/09/07 12:22:40;;;;;;;13.77;10.38;;;;;;;29.20;36.93;101650.78;2615687;36;20038;-50
2021/09/07 12:25:13;;;;;;;15.60;9.85;;;;;;;28.65;39.13;101649.16;2579640;31;2004402;-48
2021/09/07 12:27:53;;;;;;;13.35;9.68;;;;;;;28.42;38.70;101649.94;2615564;31;20035;-50
2021/09/07 12:30:22;;;;;;;11.63;9.98;;;;;;;29.32;36.20;101648.56;2616882;31;20582;-49
2021/09/07 12:33:08;;;;;;;13.02;9.98;;;;;;;29.46;36.22;101645.41;2615659;36;20026;-50
2021/09/07 12:35:38;;;;;;;12.70;9.63;;;;;;;29.31;37.77;101638.06;2580043;31;2004429;-51
2021/09/07 12:38:15;;;;;;;14.65;9.10;;;;;;;28.86;36.68;101637.00;2615577;36;20034;-51
2021/09/07 12:41:04;;;;;;;11.05;9.07;;;;;;;27.24;40.91;101628.16;2615937;31;20022;-51
2021/09/07 12:43:34;;;;;;;12.70;9.55;;;;;;;26.48;41.28;101613.53;2615688;36;20482;-53
2021/09/07 12:46:05;;;;;;;11.30;9.30;;;;;;;26.36;42.79;101617.31;2615975;31;20055;-50
2021/09/07 12:48:34;;;;;;;12.43;9.00;;;;;;;27.29;42.12;101616.59;2615475;36;20030;-54
2021/09/07 12:51:03;;;;;;;13.30;9.55;;;;;;;26.98;43.03;101611.31;2615608;36;20035;-50
2021/09/07 12:53:42;;;;;;;15.98;9.77;;;;;;;26.55;42.45;101609.84;2616307;31;20030;-51
2021/09/07 12:56:12;;;;;;;13.30;9.02;;;;;;;30.55;34.97;101620.78;2579461;36;2004674;-51
2021/09/07 12:58:51;;;;;;;11.32;8.40;;;;;;;32.22;31.97;101622.78;2615075;36;20609;-50
2021/09/07 13:01:20;;;;;;;9.68;8.27;;;;;;;31.35;32.69;101620.78;2616258;31;20138;-54
2021/09/07 13:03:48;;;;;;;9.65;8.60;;;;;;;29.05;35.92;101612.66;2614532;36;20574;-51
2021/09/07 13:06:18;;;;;;;9.82;7.97;;;;;;;28.45;37.55;101616.50;2615836;31;20046;-50
2021/09/07 13:08:46;;;;;;;10.00;8.45;;;;;;;28.17;38.42;101618.25;2615165;31;20030;-54
2021/09/07 13:11:14;;;;;;;8.88;7.82;;;;;;;27.77;38.99;101610.78;2615142;36;20030;-51
2021/09/07 13:13:43;;;;;;;13.43;9.13;;;;;;;26.75;42.03;101611.06;2615151;36;20034;-54
2021/09/07 13:16:12;;;;;;;8.63;7.80;;;;;;;26.73;42.88;101605.00;2616701;31;20027;-49
2021/09/07 13:18:40;;;;;;;12.00;8.18;;;;;;;25.98;44.17;101601.63;2615154;36;20444;-53
2021/09/07 13:21:11;;;;;;;9.25;7.50;;;;;;;26.24;42.30;101601.84;2615856;36;20034;-51
2021/09/07 13:23:40;;;;;;;12.27;7.70;;;;;;;26.51;43.30;101604.72;2615829;31;20035;-54
2021/09/07 13:26:08;;;;;;;10.05;7.20;;;;;;;26.24;43.09;101606.25;2615348;36;20034;-52
2021/09/07 13:28:36;;;;;;;11.32;8.52;;;;;;;26.11;42.72;101597.78;2614973;36;20137;-51
2021/09/07 13:31:08;;;;;;;10.77;7.45;;;;;;;25.80;43.54;101600.31;2615854;31;20034;-52
2021/09/07 13:33:35;;;;;;;11.27;8.02;;;;;;;25.35;44.23;101595.13;2615596;31;20122;-50
2021/09/07 13:36:03;;;;;;;11.15;8.02;;;;;;;26.02;42.53;101596.28;2615383;31;20716;-54
2021/09/07 13:38:30;;;;;;;10.77;7.45;;;;;;;25.83;42.34;101587.09;2615904;31;20029;-51
2021/09/07 13:40:57;;;;;;;10.43;7.78;;;;;;;28.70;37.72;101611.22;2615652;31;20575;-53
2021/09/07 13:43:25;;;;;;;9.52;7.55;;;;;;;28.42;37.56;101599.88;2615644;36;20565;-54
2021/09/07 13:45:52;;;;;;;9.75;7.25;;;;;;;30.65;33.80;101602.75;2615593;36;20038;-53
2021/09/07 13:48:25;;;;;;;11.15;8.70;;;;;;;30.91;33.13;101609.53;2615331;31;20026;-50
2021/09/07 13:50:53;;;;;;;10.77;8.90;;;;;;;29.77;34.14;101605.50;2615282;36;20042;-51
2021/09/07 13:53:20;;;;;;;12.07;8.43;;;;;;;29.72;34.30;101604.84;2615981;36;20030;-53
2021/09/07 13:55:47;;;;;;;13.93;8.38;;;;;;;29.95;36.45;101603.88;2615706;31;20097;-48
2021/09/07 13:58:14;;;;;;;16.45;13.38;;;;;;;30.34;34.38;101611.13;2615212;36;20042;-50
2021/09/07 14:00:41;;;;;;;9.10;8.00;;;;;;;30.42;33.56;101609.88;2616218;31;20049;-53
2021/09/07 14:03:08;;;;;;;8.57;7.68;;;;;;;31.44;31.76;101612.41;2615390;31;20023;-49
2021/09/07 14:05:36;;;;;;;8.70;7.45;;;;;;;31.75;32.23;101607.41;2615107;36;20038;-52
2021/09/07 14:08:03;;;;;;;10.60;7.97;;;;;;;30.14;35.00;101599.63;2614831;31;20030;-51